createdAt,value
2019-03-23T00:02:00.730Z,102157.26
2019-03-23T00:04:32.330Z,102145.73
2019-03-23T00:07:04.507Z,102154.69
2019-03-23T00:09:38.732Z,102157.43
2019-03-23T00:12:11.168Z,102158.94
2019-03-23T00:14:43.845Z,102158.45
2019-03-23T00:17:15.123Z,102160.27
2019-03-23T00:19:47.194Z,102159.10
2019-03-23T00:22:20.934Z,102166.80
2019-03-23T00:24:53.978Z,102153.95
2019-03-23T00:27:25.619Z,102161.65
2019-03-23T00:29:56.709Z,102157.34
2019-03-23T00:32:28.141Z,102162.11
2019-03-23T00:35:00.521Z,102160.34
2019-03-23T00:37:32.821Z,102167.23
2019-03-23T00:40:06.855Z,102165.05
2019-03-23T00:42:38.454Z,102169.91
2019-03-23T00:45:11.314Z,102177.88
2019-03-23T00:47:42.052Z,102174.86
2019-03-23T00:50:13.953Z,102174.23
2019-03-23T00:52:45.411Z,102176.03
2019-03-23T00:55:22.053Z,102177.00
2019-03-23T00:57:54.030Z,102179.98
2019-03-23T01:00:27.035Z,102181.16
2019-03-23T01:03:00.329Z,102178.94
2019-03-23T01:05:32.662Z,102183.38
2019-03-23T01:08:03.828Z,102178.91
2019-03-23T01:10:35.875Z,102174.12
2019-03-23T01:13:07.355Z,102179.59
2019-03-23T01:15:40.104Z,102177.98
2019-03-23T01:18:11.220Z,102180.66
2019-03-23T01:20:49.574Z,102178.34
2019-03-23T01:23:17.236Z,102183.23
2019-03-23T01:25:50.116Z,102177.77
2019-03-23T01:28:21.304Z,102186.61
2019-03-23T01:30:52.692Z,102187.00
2019-03-23T01:33:24.152Z,102192.59
2019-03-23T01:35:55.780Z,102184.91
2019-03-23T01:38:26.761Z,102172.59
2019-03-23T01:40:59.168Z,102180.22
2019-03-23T01:43:31.778Z,102184.44
2019-03-23T01:46:03.316Z,102188.44
2019-03-23T01:48:34.312Z,102192.82
2019-03-23T01:51:05.051Z,102192.05
2019-03-23T01:53:36.178Z,102193.72
2019-03-23T01:56:10.920Z,102191.57
2019-03-23T01:58:41.929Z,102194.28
2019-03-23T02:01:14.901Z,102197.73
2019-03-23T02:03:46.392Z,102201.23
2019-03-23T02:06:18.491Z,102200.33
2019-03-23T02:08:51.017Z,102200.64
2019-03-23T02:11:23.676Z,102201.61
2019-03-23T02:13:54.415Z,102199.52
2019-03-23T02:16:26.292Z,102198.72
2019-03-23T02:18:57.750Z,102206.20
2019-03-23T02:21:29.015Z,102207.86
2019-03-23T02:24:01.437Z,102211.03
2019-03-23T02:26:35.369Z,102209.22
2019-03-23T02:29:06.749Z,102212.21
2019-03-23T02:31:38.162Z,102219.52
2019-03-23T02:34:10.133Z,102229.55
2019-03-23T02:36:44.910Z,102236.00
2019-03-23T02:39:15.651Z,102233.83
2019-03-23T02:41:47.694Z,102230.63
2019-03-23T02:44:18.720Z,102239.87
2019-03-23T02:46:50.927Z,102238.81
2019-03-23T02:49:23.473Z,102245.45
2019-03-23T02:51:55.299Z,102250.46
2019-03-23T02:54:28.338Z,102253.70
2019-03-23T02:57:03.508Z,102252.17
2019-03-23T02:59:34.726Z,102251.23
2019-03-23T03:02:07.352Z,102252.79
2019-03-23T03:04:43.040Z,102255.16
2019-03-23T03:07:14.967Z,102252.28
2019-03-23T03:09:47.481Z,102262.70
2019-03-23T03:12:20.097Z,102265.82
2019-03-23T03:14:51.600Z,102272.91
2019-03-23T03:17:22.435Z,102273.02
2019-03-23T03:19:53.971Z,102270.84
2019-03-23T03:22:25.722Z,102280.77
2019-03-23T03:24:57.288Z,102271.50
2019-03-23T03:27:29.121Z,102274.74
2019-03-23T03:30:00.713Z,102286.52
2019-03-23T03:32:31.784Z,102289.94
2019-03-23T03:35:06.211Z,102290.68
2019-03-23T03:37:38.849Z,102296.75
2019-03-23T03:40:11.710Z,102299.72
2019-03-23T03:42:44.251Z,102303.81
2019-03-23T03:45:23.716Z,102301.30
2019-03-23T03:47:57.145Z,102302.34
2019-03-23T03:50:29.847Z,102308.03
2019-03-23T03:53:00.909Z,102300.53
2019-03-23T03:55:32.061Z,102309.14
2019-03-23T03:58:06.819Z,102309.16
2019-03-23T04:00:39.123Z,102316.06
2019-03-23T04:03:10.677Z,102309.23
2019-03-23T04:05:42.333Z,102318.01
2019-03-23T04:08:14.473Z,102317.48
2019-03-23T04:10:48.049Z,102316.59
2019-03-23T04:13:20.855Z,102315.66
2019-03-23T04:15:52.755Z,102321.81
2019-03-23T04:18:25.435Z,102320.05
2019-03-23T04:20:58.796Z,102321.87
2019-03-23T04:23:30.462Z,102326.32
2019-03-23T04:26:01.723Z,102333.27
2019-03-23T04:28:32.961Z,102338.02
2019-03-23T04:31:04.644Z,102339.91
2019-03-23T04:33:35.942Z,102347.31
2019-03-23T04:36:07.172Z,102341.38
2019-03-23T04:38:39.455Z,102339.20
2019-03-23T04:41:12.850Z,102345.24
2019-03-23T04:43:50.886Z,102347.55
2019-03-23T04:46:22.355Z,102345.98
2019-03-23T04:48:54.381Z,102349.09
2019-03-23T04:51:25.119Z,102350.98
2019-03-23T04:53:56.766Z,102356.88
2019-03-23T04:56:28.296Z,102355.63
2019-03-23T04:59:01.956Z,102355.88
2019-03-23T05:01:33.642Z,102369.84
2019-03-23T05:04:05.572Z,102374.68
2019-03-23T05:06:36.700Z,102373.25
2019-03-23T05:09:09.837Z,102376.05
2019-03-23T05:11:41.969Z,102377.25
2019-03-23T05:14:16.264Z,102380.15
2019-03-23T05:16:47.834Z,102377.44
2019-03-23T05:19:18.613Z,102387.34
2019-03-23T05:21:49.730Z,102390.64
2019-03-23T05:24:20.960Z,102397.50
2019-03-23T05:26:52.540Z,102394.53
2019-03-23T05:29:24.920Z,102396.80
2019-03-23T05:31:55.697Z,102405.67
2019-03-23T05:34:27.126Z,102400.26
2019-03-23T05:36:59.185Z,102393.00
2019-03-23T05:39:30.440Z,102396.91
2019-03-23T05:42:01.931Z,102395.66
2019-03-23T05:44:34.235Z,102400.69
2019-03-23T05:47:05.416Z,102399.86
2019-03-23T05:49:36.659Z,102405.29
2019-03-23T05:52:07.797Z,102407.25
2019-03-23T05:54:38.898Z,102404.39
2019-03-23T05:57:10.066Z,102410.81
2019-03-23T05:59:44.788Z,102412.03
2019-03-23T06:02:15.555Z,102402.38
2019-03-23T06:04:46.844Z,102411.05
2019-03-23T06:07:18.774Z,102405.61
2019-03-23T06:09:50.949Z,102405.84
2019-03-23T06:12:21.849Z,102419.42
2019-03-23T06:14:55.239Z,102415.43
2019-03-23T06:17:26.408Z,102424.06
2019-03-23T06:19:59.187Z,102425.31
2019-03-23T06:22:31.037Z,102424.70
2019-03-23T06:25:02.902Z,102427.56
2019-03-23T06:27:37.810Z,102424.31
2019-03-23T06:30:12.926Z,102422.44
2019-03-23T06:32:46.972Z,102436.79
2019-03-23T06:35:20.069Z,102431.30
2019-03-23T06:37:51.324Z,102426.37
2019-03-23T06:40:22.808Z,102429.75
2019-03-23T06:42:59.618Z,102436.77
2019-03-23T06:45:29.901Z,102426.05
2019-03-23T06:48:03.364Z,102424.59
2019-03-23T06:50:34.474Z,102426.20
2019-03-23T06:53:06.494Z,102425.47
2019-03-23T06:55:38.668Z,102445.66
2019-03-23T07:01:31.711Z,102450.45
2019-03-23T07:04:03.393Z,102438.94
2019-03-23T07:06:34.222Z,102438.41
2019-03-23T07:09:15.831Z,102438.36
2019-03-23T07:11:40.938Z,102443.64
2019-03-23T07:14:14.704Z,102450.98
2019-03-23T07:16:47.034Z,102440.25
2019-03-23T07:19:18.105Z,102443.57
2019-03-23T07:21:49.281Z,102445.08
2019-03-23T07:24:28.830Z,102453.16
2019-03-23T07:26:59.975Z,102452.33
2019-03-23T07:29:30.716Z,102457.98
2019-03-23T07:32:05.920Z,102458.39
2019-03-23T07:34:35.142Z,102463.72
2019-03-23T07:37:08.738Z,102457.44
2019-03-23T07:39:39.996Z,102464.83
2019-03-23T07:42:12.193Z,102466.33
2019-03-23T07:44:45.401Z,102462.16
2019-03-23T07:47:19.495Z,102459.55
2019-03-23T07:49:50.663Z,102472.64
2019-03-23T07:52:21.544Z,102474.85
2019-03-23T07:54:54.551Z,102473.69
2019-03-23T07:57:28.096Z,102484.46
2019-03-23T08:00:01.187Z,102487.18
2019-03-23T08:02:35.172Z,102490.78
2019-03-23T08:05:07.948Z,102489.60
2019-03-23T08:07:39.272Z,102495.37
2019-03-23T08:10:10.091Z,102491.95
2019-03-23T08:12:41.710Z,102494.61
2019-03-23T08:15:15.221Z,102498.69
2019-03-23T08:17:49.013Z,102498.98
2019-03-23T08:20:22.027Z,102492.96
2019-03-23T08:22:53.663Z,102497.23
2019-03-23T08:25:25.539Z,102504.25
2019-03-23T08:27:56.835Z,102495.81
2019-03-23T08:30:27.935Z,102498.67
2019-03-23T08:33:00.481Z,102505.22
2019-03-23T08:35:33.377Z,102509.20
2019-03-23T08:38:05.129Z,102503.00
2019-03-23T08:40:36.034Z,102500.84
2019-03-23T08:43:11.961Z,102495.57
2019-03-23T08:45:44.265Z,102489.50
2019-03-23T08:48:15.550Z,102497.50
2019-03-23T08:50:47.173Z,102495.29
2019-03-23T08:53:18.297Z,102494.92
2019-03-23T08:55:49.993Z,102498.91
2019-03-23T08:58:29.266Z,102497.84
2019-03-23T09:01:01.688Z,102495.78
2019-03-23T09:03:34.807Z,102494.17
2019-03-23T09:06:08.782Z,102504.33
2019-03-23T09:08:40.547Z,102498.78
2019-03-23T09:11:20.216Z,102495.06
2019-03-23T09:13:47.808Z,102497.19
2019-03-23T09:16:20.294Z,102502.11
2019-03-23T09:18:52.134Z,102513.59
2019-03-23T09:21:24.981Z,102508.11
2019-03-23T09:23:55.871Z,102505.25
2019-03-23T09:26:27.477Z,102515.59
2019-03-23T09:28:58.721Z,102512.06
2019-03-23T09:31:29.458Z,102509.05
2019-03-23T09:34:01.977Z,102511.07
2019-03-23T09:36:33.958Z,102507.97
2019-03-23T09:39:09.983Z,102512.84
2019-03-23T09:41:42.195Z,102513.30
2019-03-23T09:44:13.282Z,102511.50
2019-03-23T09:46:44.446Z,102504.08
2019-03-23T09:49:17.182Z,102508.73
2019-03-23T09:51:48.588Z,102520.84
2019-03-23T09:54:19.835Z,102520.02
2019-03-23T09:56:52.460Z,102516.30
2019-03-23T09:59:25.490Z,102517.80
2019-03-23T10:01:58.453Z,102519.65
2019-03-23T10:04:32.000Z,102521.45
2019-03-23T10:07:04.542Z,102520.48
2019-03-23T10:09:36.463Z,102515.00
2019-03-23T10:12:07.543Z,102515.03
2019-03-23T10:14:40.791Z,102513.09
2019-03-23T10:17:11.923Z,102513.90
2019-03-23T10:19:45.506Z,102514.15
2019-03-23T10:22:17.083Z,102517.05
2019-03-23T10:24:51.851Z,102518.95
2019-03-23T10:27:38.199Z,102513.88
2019-03-23T10:30:11.765Z,102524.75
2019-03-23T10:32:42.572Z,102513.16
2019-03-23T10:35:15.272Z,102511.45
2019-03-23T10:37:47.005Z,102517.38
2019-03-23T10:40:19.105Z,102527.19
2019-03-23T10:42:52.896Z,102521.47
2019-03-23T10:45:25.254Z,102517.20
2019-03-23T10:50:29.267Z,102524.02
2019-03-23T10:53:00.396Z,102523.81
2019-03-23T10:55:32.222Z,102515.73
2019-03-23T10:58:04.215Z,102518.52
2019-03-23T11:00:40.779Z,102523.58
2019-03-23T11:03:11.918Z,102512.66
2019-03-23T11:05:45.253Z,102511.37
2019-03-23T11:08:16.486Z,102506.03
2019-03-23T11:10:48.343Z,102511.42
2019-03-23T11:13:19.499Z,102506.49
2019-03-23T11:15:50.675Z,102514.76
2019-03-23T11:18:25.547Z,102512.29
2019-03-23T11:21:00.151Z,102512.91
2019-03-23T11:23:32.552Z,102515.91
2019-03-23T11:26:03.449Z,102521.09
2019-03-23T11:28:34.716Z,102525.98
2019-03-23T11:31:06.273Z,102528.73
2019-03-23T11:33:38.003Z,102529.95
2019-03-23T11:36:10.920Z,102532.50
2019-03-23T11:38:42.403Z,102531.23
2019-03-23T11:41:13.264Z,102531.61
2019-03-23T11:43:44.006Z,102528.39
2019-03-23T11:46:16.939Z,102533.36
2019-03-23T11:48:48.034Z,102528.66
2019-03-23T11:51:20.079Z,102526.38
2019-03-23T11:53:51.108Z,102530.31
2019-03-23T11:56:21.948Z,102528.74
2019-03-23T11:58:54.316Z,102528.86
2019-03-23T12:01:25.911Z,102525.28
2019-03-23T12:03:57.015Z,102534.79
2019-03-23T12:06:30.956Z,102530.63
2019-03-23T12:09:05.966Z,102537.22
2019-03-23T12:11:37.982Z,102541.41
2019-03-23T12:14:09.072Z,102543.48
2019-03-23T12:16:41.138Z,102546.70
2019-03-23T12:19:12.713Z,102546.73
2019-03-23T12:21:44.819Z,102539.84
2019-03-23T12:24:15.529Z,102546.38
2019-03-23T12:26:46.742Z,102542.42
2019-03-23T12:29:21.433Z,102541.00
2019-03-23T12:31:52.643Z,102538.82
2019-03-23T12:34:25.265Z,102527.28
2019-03-23T12:36:59.853Z,102541.19
2019-03-23T12:39:32.222Z,102543.98
2019-03-23T12:42:05.891Z,102543.30
2019-03-23T12:44:41.885Z,102546.77
2019-03-23T12:47:12.921Z,102544.89
2019-03-23T12:49:47.878Z,102534.43
2019-03-23T12:52:21.338Z,102537.35
2019-03-23T12:54:53.306Z,102540.96
2019-03-23T12:57:26.523Z,102537.59
2019-03-23T12:59:57.764Z,102537.23
2019-03-23T13:02:28.616Z,102540.23
2019-03-23T13:04:59.795Z,102540.84
2019-03-23T13:07:34.549Z,102543.62
2019-03-23T13:10:07.200Z,102544.52
2019-03-23T13:12:38.774Z,102536.95
2019-03-23T13:15:12.124Z,102543.23
2019-03-23T13:17:43.479Z,102546.38
2019-03-23T13:20:15.578Z,102540.29
2019-03-23T13:22:52.336Z,102531.67
2019-03-23T13:25:24.798Z,102533.82
2019-03-23T13:27:56.298Z,102532.77
2019-03-23T13:30:28.776Z,102532.53
2019-03-23T13:32:59.587Z,102529.53
2019-03-23T13:35:30.677Z,102534.45
2019-03-23T13:38:03.955Z,102522.92
2019-03-23T13:40:35.840Z,102526.81
2019-03-23T13:43:06.671Z,102519.89
2019-03-23T13:45:42.667Z,102524.08
2019-03-23T13:48:12.657Z,102521.70
2019-03-23T13:50:44.649Z,102512.67
2019-03-23T13:53:17.697Z,102517.75
2019-03-23T13:55:48.855Z,102515.88
2019-03-23T13:58:22.789Z,102517.59
2019-03-23T14:00:55.416Z,102516.81
2019-03-23T14:03:29.169Z,102514.63
2019-03-23T14:06:02.027Z,102514.13
2019-03-23T14:08:36.276Z,102509.64
2019-03-23T14:11:08.398Z,102515.83
2019-03-23T14:13:41.413Z,102502.01
2019-03-23T14:16:12.711Z,102499.71
2019-03-23T14:18:45.729Z,102495.80
2019-03-23T14:21:17.605Z,102498.16
2019-03-23T14:23:51.019Z,102493.45
2019-03-23T14:26:25.297Z,102496.81
2019-03-23T14:28:59.271Z,102499.34
2019-03-23T14:31:31.726Z,102499.24
2019-03-23T14:34:03.522Z,102476.11
2019-03-23T14:36:35.024Z,102501.41
2019-03-23T14:39:08.359Z,102500.15
2019-03-23T14:41:40.372Z,102495.28
2019-03-23T14:44:13.394Z,102495.39
2019-03-23T14:46:44.398Z,102487.28
2019-03-23T14:49:15.253Z,102494.24
2019-03-23T14:51:47.258Z,102491.20
2019-03-23T14:54:22.040Z,102491.57
2019-03-23T14:56:53.416Z,102484.37
2019-03-23T14:59:24.888Z,102484.53
2019-03-23T15:01:56.813Z,102492.13
2019-03-23T15:04:28.986Z,102484.95
2019-03-23T15:06:59.718Z,102481.37
2019-03-23T15:09:33.899Z,102479.73
2019-03-23T15:12:14.725Z,102483.04
2019-03-23T15:14:40.258Z,102485.77
2019-03-23T15:17:11.064Z,102488.38
2019-03-23T15:19:42.996Z,102485.80
2019-03-23T15:22:15.224Z,102481.51
2019-03-23T15:24:47.892Z,102490.36
2019-03-23T15:27:19.391Z,102473.61
2019-03-23T15:29:50.907Z,102475.06
2019-03-23T15:32:23.222Z,102469.92
2019-03-23T15:34:53.972Z,102473.06
2019-03-23T15:37:24.735Z,102478.73
2019-03-23T15:39:56.090Z,102476.59
2019-03-23T15:42:27.279Z,102480.08
2019-03-23T15:44:58.350Z,102473.04
2019-03-23T15:47:29.657Z,102476.16
2019-03-23T15:50:01.972Z,102475.39
2019-03-23T15:52:33.447Z,102471.86
2019-03-23T15:55:05.218Z,102474.91
2019-03-23T15:57:36.063Z,102473.64
2019-03-23T16:00:12.054Z,102470.35
2019-03-23T16:02:43.487Z,102471.05
2019-03-23T16:05:14.799Z,102469.55
2019-03-23T16:07:46.191Z,102470.78
2019-03-23T16:10:20.139Z,102470.66
2019-03-23T16:12:51.804Z,102464.72
2019-03-23T16:15:23.719Z,102463.25
2019-03-23T16:17:56.537Z,102468.86
2019-03-23T16:20:28.371Z,102465.88
2019-03-23T16:23:00.499Z,102469.62
2019-03-23T16:25:33.811Z,102466.39
2019-03-23T16:28:06.555Z,102468.52
2019-03-23T16:30:38.303Z,102472.62
2019-03-23T16:33:10.035Z,102466.12
2019-03-23T16:35:41.605Z,102471.35
2019-03-23T16:38:12.307Z,102466.53
2019-03-23T16:40:45.582Z,102473.74
2019-03-23T16:43:17.336Z,102474.73
2019-03-23T16:45:48.380Z,102477.81
2019-03-23T16:48:21.998Z,102476.61
2019-03-23T16:50:52.811Z,102469.58
2019-03-23T16:53:24.011Z,102476.98
2019-03-23T16:55:56.146Z,102470.86
2019-03-23T16:58:27.347Z,102477.25
2019-03-23T17:01:01.221Z,102475.11
2019-03-23T17:03:33.314Z,102472.60
2019-03-23T17:06:07.740Z,102481.34
2019-03-23T17:08:39.887Z,102476.14
2019-03-23T17:11:13.127Z,102473.74
2019-03-23T17:13:44.804Z,102478.24
2019-03-23T17:16:18.295Z,102471.13
2019-03-23T17:18:49.869Z,102469.26
2019-03-23T17:21:21.133Z,102462.55
2019-03-23T17:23:52.673Z,102463.34
2019-03-23T17:26:25.478Z,102465.52
2019-03-23T17:28:59.086Z,102463.09
2019-03-23T17:31:32.735Z,102473.34
2019-03-23T17:34:07.341Z,102477.06
2019-03-23T17:36:38.282Z,102473.85
2019-03-23T17:39:09.803Z,102480.17
2019-03-23T17:41:42.518Z,102479.78
2019-03-23T17:44:13.739Z,102480.44
2019-03-23T17:46:46.978Z,102484.84
2019-03-23T17:49:20.428Z,102486.33
2019-03-23T17:51:51.271Z,102492.20
2019-03-23T17:54:23.515Z,102486.05
2019-03-23T17:56:56.838Z,102490.56
2019-03-23T17:59:27.942Z,102483.52
2019-03-23T18:02:01.852Z,102494.20
2019-03-23T18:04:33.934Z,102484.25
2019-03-23T18:07:05.643Z,102488.21
2019-03-23T18:09:36.351Z,102485.66
2019-03-23T18:12:08.972Z,102487.37
2019-03-23T18:14:40.837Z,102489.30
2019-03-23T18:17:11.427Z,102487.35
2019-03-23T18:19:42.955Z,102486.39
2019-03-23T18:22:14.098Z,102494.72
2019-03-23T18:24:45.657Z,102486.27
2019-03-23T18:27:18.893Z,102496.25
2019-03-23T18:29:49.621Z,102483.52
2019-03-23T18:32:20.782Z,102482.48
2019-03-23T18:34:52.585Z,102486.84
2019-03-23T18:37:24.101Z,102489.84
2019-03-23T18:39:55.580Z,102494.55
2019-03-23T18:42:27.875Z,102488.88
2019-03-23T18:44:59.141Z,102482.28
2019-03-23T18:47:30.307Z,102493.45
2019-03-23T18:50:01.817Z,102492.78
2019-03-23T18:52:33.272Z,102495.67
2019-03-23T18:55:06.855Z,102496.31
2019-03-23T18:57:39.537Z,102498.78
2019-03-23T19:00:11.877Z,102500.15
2019-03-23T19:02:42.875Z,102500.55
2019-03-23T19:05:14.859Z,102499.87
2019-03-23T19:07:46.752Z,102501.27
2019-03-23T19:10:18.048Z,102497.38
2019-03-23T19:12:51.704Z,102494.55
2019-03-23T19:15:23.010Z,102505.07
2019-03-23T19:17:53.821Z,102503.94
2019-03-23T19:20:24.770Z,102497.66
2019-03-23T19:22:55.520Z,102500.14
2019-03-23T19:25:27.869Z,102500.77
2019-03-23T19:28:00.346Z,102494.75
2019-03-23T19:30:35.689Z,102501.51
2019-03-23T19:33:06.615Z,102506.55
2019-03-23T19:35:37.865Z,102506.45
2019-03-23T19:38:09.824Z,102510.67
2019-03-23T19:40:40.646Z,102509.34
2019-03-23T19:43:12.688Z,102510.72
2019-03-23T19:45:44.750Z,102511.41
2019-03-23T19:48:15.887Z,102503.43
2019-03-23T19:50:48.488Z,102506.93
2019-03-23T19:53:20.645Z,102513.85
2019-03-23T19:55:53.209Z,102507.94
2019-03-23T19:58:25.046Z,102507.48
2019-03-23T20:00:57.485Z,102509.63
2019-03-23T20:03:31.063Z,102504.23
2019-03-23T20:06:04.027Z,102510.03
2019-03-23T20:08:37.582Z,102512.68
2019-03-23T20:11:08.919Z,102514.45
2019-03-23T20:13:44.559Z,102517.95
2019-03-23T20:16:17.543Z,102513.91
2019-03-23T20:18:48.754Z,102509.34
2019-03-23T20:21:20.014Z,102514.94
2019-03-23T20:23:53.228Z,102513.70
2019-03-23T20:26:25.161Z,102516.28
2019-03-23T20:28:59.371Z,102510.27
2019-03-23T20:31:33.817Z,102508.78
2019-03-23T20:34:04.857Z,102506.33
2019-03-23T20:36:39.018Z,102501.05
2019-03-23T20:39:13.590Z,102498.78
2019-03-23T20:41:48.235Z,102503.10
2019-03-23T20:44:20.386Z,102498.78
2019-03-23T20:46:53.527Z,102489.29
2019-03-23T20:49:24.845Z,102492.95
2019-03-23T20:51:58.433Z,102492.86
2019-03-23T20:54:30.028Z,102491.97
2019-03-23T20:57:03.239Z,102497.81
2019-03-23T20:59:36.165Z,102505.88
2019-03-23T21:02:10.700Z,102492.53
2019-03-23T21:04:43.476Z,102493.72
2019-03-23T21:07:14.793Z,102493.43
2019-03-23T21:09:46.060Z,102491.41
2019-03-23T21:12:16.762Z,102485.88
2019-03-23T21:14:49.004Z,102488.03
2019-03-23T21:17:20.213Z,102485.69
2019-03-23T21:19:51.367Z,102482.69
2019-03-23T21:22:22.074Z,102484.88
2019-03-23T21:24:52.838Z,102472.88
2019-03-23T21:27:26.370Z,102469.77
2019-03-23T21:30:00.037Z,102472.45
2019-03-23T21:32:32.453Z,102473.02
2019-03-23T21:35:05.708Z,102473.56
2019-03-23T21:37:39.378Z,102464.56
2019-03-23T21:40:11.217Z,102459.66
2019-03-23T21:42:42.332Z,102455.28
2019-03-23T21:45:17.278Z,102460.02
2019-03-23T21:47:51.429Z,102457.52
2019-03-23T21:50:22.616Z,102455.15
2019-03-23T21:52:55.787Z,102457.31
2019-03-23T21:55:29.642Z,102455.39
2019-03-23T21:58:01.687Z,102448.37
2019-03-23T22:00:36.735Z,102449.63
2019-03-23T22:03:08.718Z,102452.09
2019-03-23T22:05:40.908Z,102444.63
2019-03-23T22:08:12.808Z,102448.27
2019-03-23T22:10:44.734Z,102445.59
2019-03-23T22:13:16.885Z,102453.49
2019-03-23T22:15:50.575Z,102440.51
2019-03-23T22:18:22.172Z,102433.45
2019-03-23T22:20:55.685Z,102431.81
2019-03-23T22:23:26.773Z,102428.98
2019-03-23T22:26:00.743Z,102427.85
2019-03-23T22:28:32.837Z,102433.53
2019-03-23T22:31:05.316Z,102431.97
2019-03-23T22:33:36.620Z,102433.53
2019-03-23T22:36:07.930Z,102429.09
2019-03-23T22:38:40.462Z,102430.77
2019-03-23T22:41:12.009Z,102424.41
2019-03-23T22:43:42.973Z,102429.45
2019-03-23T22:46:15.074Z,102422.95
2019-03-23T22:48:48.200Z,102419.64
2019-03-23T22:51:20.125Z,102414.98
2019-03-23T22:54:01.182Z,102420.86
2019-03-23T22:56:32.426Z,102412.82
2019-03-23T22:59:03.641Z,102411.27
2019-03-23T23:01:36.174Z,102409.16
2019-03-23T23:04:07.327Z,102412.06
2019-03-23T23:06:40.383Z,102408.11
2019-03-23T23:09:13.664Z,102403.16
2019-03-23T23:11:45.134Z,102403.91
2019-03-23T23:14:17.956Z,102401.56
2019-03-23T23:16:54.223Z,102397.78
2019-03-23T23:19:28.162Z,102387.99
2019-03-23T23:21:59.678Z,102386.61
2019-03-23T23:24:31.080Z,102389.48
2019-03-23T23:27:01.832Z,102389.97
2019-03-23T23:29:33.931Z,102389.41
2019-03-23T23:32:06.582Z,102385.16
2019-03-23T23:34:37.360Z,102380.48
2019-03-23T23:37:08.176Z,102386.81
2019-03-23T23:39:41.587Z,102379.83
2019-03-23T23:42:12.389Z,102381.55
2019-03-23T23:44:44.179Z,102377.56
2019-03-23T23:47:15.160Z,102377.41
2019-03-23T23:49:49.714Z,102373.58
2019-03-23T23:52:22.261Z,102369.77
2019-03-23T23:54:53.373Z,102374.45
2019-03-23T23:57:24.965Z,102372.92
2019-03-23T23:59:56.689Z,102372.80
